sensor_id;sensor_type;location;lat;lon;timestamp;pressure;altitude;pressure_sealevel;temperature;humidity
10840;BME280;5473;42.706;23.328;2022-09-30T00:00:05;-14565.91;;;-142.93;41.83
10840;BME280;5473;42.706;23.328;2022-09-30T00:02:34;-14565.91;;;-142.93;41.81
10840;BME280;5473;42.706;23.328;2022-09-30T00:05:01;-14565.91;;;-142.93;41.70
10840;BME280;5473;42.706;23.328;2022-09-30T00:07:27;-14565.91;;;-142.93;41.27
10840;BME280;5473;42.706;23.328;2022-09-30T00:09:54;-14565.91;;;-142.93;40.60
10840;BME280;5473;42.706;23.328;2022-09-30T00:12:21;-14565.91;;;-142.93;40.13
10840;BME280;5473;42.706;23.328;2022-09-30T00:14:48;-14565.91;;;-142.93;39.75
10840;BME280;5473;42.706;23.328;2022-09-30T00:17:14;-14565.91;;;-142.93;39.55
10840;BME280;5473;42.706;23.328;2022-09-30T00:19:44;-14565.91;;;-142.93;39.43
10840;BME280;5473;42.706;23.328;2022-09-30T00:22:11;-14565.91;;;-142.93;39.33
10840;BME280;5473;42.706;23.328;2022-09-30T00:24:38;-14565.91;;;-142.93;39.18
10840;BME280;5473;42.706;23.328;2022-09-30T00:27:05;-14565.91;;;-142.93;39.18
10840;BME280;5473;42.706;23.328;2022-09-30T00:29:32;-14565.91;;;-142.93;39.24
10840;BME280;5473;42.706;23.328;2022-09-30T00:31:58;-14565.91;;;-142.93;39.05
10840;BME280;5473;42.706;23.328;2022-09-30T00:34:25;-14565.91;;;-142.93;38.99
10840;BME280;5473;42.706;23.328;2022-09-30T00:36:56;-14565.91;;;-142.93;38.91
10840;BME280;5473;42.706;23.328;2022-09-30T00:39:25;-14565.91;;;-142.93;38.72
10840;BME280;5473;42.706;23.328;2022-09-30T00:41:55;-14565.91;;;-142.93;38.70
10840;BME280;5473;42.706;23.328;2022-09-30T00:44:48;-14565.91;;;-142.93;38.72
10840;BME280;5473;42.706;23.328;2022-09-30T00:47:37;-14565.91;;;-142.93;39.02
10840;BME280;5473;42.706;23.328;2022-09-30T00:50:20;-14565.91;;;-142.93;39.09
10840;BME280;5473;42.706;23.328;2022-09-30T00:52:52;-14565.91;;;-142.93;39.01
10840;BME280;5473;42.706;23.328;2022-09-30T00:55:29;-14565.91;;;-142.93;38.98
10840;BME280;5473;42.706;23.328;2022-09-30T00:57:58;-14565.91;;;-142.93;38.89
10840;BME280;5473;42.706;23.328;2022-09-30T01:00:26;-14565.91;;;-142.93;38.74
10840;BME280;5473;42.706;23.328;2022-09-30T01:02:53;-14565.91;;;-142.93;38.63
10840;BME280;5473;42.706;23.328;2022-09-30T01:05:21;-14565.91;;;-142.93;38.48
10840;BME280;5473;42.706;23.328;2022-09-30T01:07:51;-14565.91;;;-142.93;38.54
10840;BME280;5473;42.706;23.328;2022-09-30T01:10:18;-14565.91;;;-142.93;38.73
10840;BME280;5473;42.706;23.328;2022-09-30T01:12:45;-14565.91;;;-142.93;38.84
10840;BME280;5473;42.706;23.328;2022-09-30T01:15:12;-14565.91;;;-142.93;38.97
10840;BME280;5473;42.706;23.328;2022-09-30T01:17:45;-14565.91;;;-142.93;39.03
10840;BME280;5473;42.706;23.328;2022-09-30T01:23:49;-14565.91;;;-142.93;38.79
10840;BME280;5473;42.706;23.328;2022-09-30T01:29:34;-14565.91;;;-142.93;38.55
10840;BME280;5473;42.706;23.328;2022-09-30T01:32:12;-14565.91;;;-142.93;38.57
10840;BME280;5473;42.706;23.328;2022-09-30T01:34:47;-14565.91;;;-142.93;38.51
10840;BME280;5473;42.706;23.328;2022-09-30T01:37:21;-14565.91;;;-142.93;38.43
10840;BME280;5473;42.706;23.328;2022-09-30T01:39:58;-14565.91;;;-142.93;38.36
10840;BME280;5473;42.706;23.328;2022-09-30T01:42:35;-14565.91;;;-142.93;38.39
10840;BME280;5473;42.706;23.328;2022-09-30T01:45:07;-14565.91;;;-142.93;38.19
10840;BME280;5473;42.706;23.328;2022-09-30T01:47:41;-14565.91;;;-142.93;38.21
10840;BME280;5473;42.706;23.328;2022-09-30T01:50:16;-14565.91;;;-142.93;38.26
10840;BME280;5473;42.706;23.328;2022-09-30T01:52:48;-14565.91;;;-142.93;38.27
10840;BME280;5473;42.706;23.328;2022-09-30T01:55:20;-14565.91;;;-142.93;38.09
10840;BME280;5473;42.706;23.328;2022-09-30T01:57:55;-14565.91;;;-142.93;38.07
10840;BME280;5473;42.706;23.328;2022-09-30T02:00:25;-14565.91;;;-142.93;37.99
10840;BME280;5473;42.706;23.328;2022-09-30T02:02:56;-14565.91;;;-142.93;37.98
10840;BME280;5473;42.706;23.328;2022-09-30T02:05:27;-14565.91;;;-142.93;37.93
10840;BME280;5473;42.706;23.328;2022-09-30T02:07:59;-14565.91;;;-142.93;37.98
10840;BME280;5473;42.706;23.328;2022-09-30T02:10:31;-14565.91;;;-142.93;37.86
10840;BME280;5473;42.706;23.328;2022-09-30T02:13:03;-14565.91;;;-142.93;37.77
10840;BME280;5473;42.706;23.328;2022-09-30T02:15:38;-14565.91;;;-142.93;37.77
10840;BME280;5473;42.706;23.328;2022-09-30T02:18:14;-14565.91;;;-142.93;37.66
10840;BME280;5473;42.706;23.328;2022-09-30T02:20:46;-14565.91;;;-142.93;37.55
10840;BME280;5473;42.706;23.328;2022-09-30T02:23:17;-14565.91;;;-142.93;37.55
10840;BME280;5473;42.706;23.328;2022-09-30T02:25:48;-14565.91;;;-142.93;37.48
10840;BME280;5473;42.706;23.328;2022-09-30T02:28:20;-14565.91;;;-142.93;37.40
10840;BME280;5473;42.706;23.328;2022-09-30T02:30:53;-14565.91;;;-142.93;37.45
10840;BME280;5473;42.706;23.328;2022-09-30T02:33:29;-14565.91;;;-142.93;37.61
10840;BME280;5473;42.706;23.328;2022-09-30T02:36:01;-14565.91;;;-142.93;37.71
10840;BME280;5473;42.706;23.328;2022-09-30T02:38:31;-14565.91;;;-142.93;37.67
10840;BME280;5473;42.706;23.328;2022-09-30T02:41:03;-14565.91;;;-142.93;37.72
10840;BME280;5473;42.706;23.328;2022-09-30T02:43:33;-14565.91;;;-142.93;37.64
10840;BME280;5473;42.706;23.328;2022-09-30T02:46:04;-14565.91;;;-142.93;37.65
10840;BME280;5473;42.706;23.328;2022-09-30T02:48:41;-14565.91;;;-142.93;37.57
10840;BME280;5473;42.706;23.328;2022-09-30T02:51:14;-14565.91;;;-142.93;37.51
10840;BME280;5473;42.706;23.328;2022-09-30T02:53:44;-14565.91;;;-142.93;37.47
10840;BME280;5473;42.706;23.328;2022-09-30T02:56:23;-14565.91;;;-142.93;37.55
10840;BME280;5473;42.706;23.328;2022-09-30T02:58:53;-14565.91;;;-142.93;37.58
10840;BME280;5473;42.706;23.328;2022-09-30T03:01:23;-14565.91;;;-142.93;37.55
10840;BME280;5473;42.706;23.328;2022-09-30T03:03:52;-14565.91;;;-142.93;37.50
10840;BME280;5473;42.706;23.328;2022-09-30T03:06:21;-14565.91;;;-142.93;37.33
10840;BME280;5473;42.706;23.328;2022-09-30T03:08:50;-14565.91;;;-142.93;37.16
10840;BME280;5473;42.706;23.328;2022-09-30T03:11:19;-14565.91;;;-142.93;36.98
10840;BME280;5473;42.706;23.328;2022-09-30T03:23:03;-14565.91;;;-142.93;36.55
10840;BME280;5473;42.706;23.328;2022-09-30T03:25:41;-14565.91;;;-142.93;36.58
10840;BME280;5473;42.706;23.328;2022-09-30T03:28:18;-14565.91;;;-142.93;36.51
10840;BME280;5473;42.706;23.328;2022-09-30T03:30:54;-14565.91;;;-142.93;36.49
10840;BME280;5473;42.706;23.328;2022-09-30T03:33:32;-14565.91;;;-142.93;36.48
10840;BME280;5473;42.706;23.328;2022-09-30T03:36:07;-14565.91;;;-142.93;36.48
10840;BME280;5473;42.706;23.328;2022-09-30T03:38:44;-14565.91;;;-142.93;36.40
10840;BME280;5473;42.706;23.328;2022-09-30T03:41:19;-14565.91;;;-142.93;36.30
10840;BME280;5473;42.706;23.328;2022-09-30T03:43:53;-14565.91;;;-142.93;36.21
10840;BME280;5473;42.706;23.328;2022-09-30T03:46:27;-14565.91;;;-142.93;36.08
10840;BME280;5473;42.706;23.328;2022-09-30T03:48:59;-14565.91;;;-142.93;36.12
10840;BME280;5473;42.706;23.328;2022-09-30T03:51:29;-14565.91;;;-142.93;36.04
10840;BME280;5473;42.706;23.328;2022-09-30T03:53:57;-14565.91;;;-142.93;35.95
10840;BME280;5473;42.706;23.328;2022-09-30T03:56:25;-14565.91;;;-142.93;35.87
10840;BME280;5473;42.706;23.328;2022-09-30T03:58:53;-14565.91;;;-142.93;35.87
10840;BME280;5473;42.706;23.328;2022-09-30T04:01:20;-14565.91;;;-142.93;35.83
10840;BME280;5473;42.706;23.328;2022-09-30T04:03:47;-14565.91;;;-142.93;35.83
10840;BME280;5473;42.706;23.328;2022-09-30T04:06:17;-14565.91;;;-142.93;35.67
10840;BME280;5473;42.706;23.328;2022-09-30T04:08:46;-14565.91;;;-142.93;35.49
10840;BME280;5473;42.706;23.328;2022-09-30T04:11:12;-14565.91;;;-142.93;35.42
10840;BME280;5473;42.706;23.328;2022-09-30T04:13:39;-14565.91;;;-142.93;35.29
10840;BME280;5473;42.706;23.328;2022-09-30T04:16:07;-14565.91;;;-142.93;35.17
10840;BME280;5473;42.706;23.328;2022-09-30T04:18:34;-14565.91;;;-142.93;35.11
10840;BME280;5473;42.706;23.328;2022-09-30T04:21:04;-14565.91;;;-142.93;35.01
10840;BME280;5473;42.706;23.328;2022-09-30T04:23:33;-14565.91;;;-142.93;34.93
10840;BME280;5473;42.706;23.328;2022-09-30T04:26:02;-14565.91;;;-142.93;34.81
10840;BME280;5473;42.706;23.328;2022-09-30T04:28:32;-14565.91;;;-142.93;34.75
10840;BME280;5473;42.706;23.328;2022-09-30T04:30:59;-14565.91;;;-142.93;34.68
10840;BME280;5473;42.706;23.328;2022-09-30T04:33:26;-14565.91;;;-142.93;34.59
10840;BME280;5473;42.706;23.328;2022-09-30T04:35:53;-14565.91;;;-142.93;34.55
10840;BME280;5473;42.706;23.328;2022-09-30T04:38:20;-14565.91;;;-142.93;34.52
10840;BME280;5473;42.706;23.328;2022-09-30T04:40:49;-14565.91;;;-142.93;34.52
10840;BME280;5473;42.706;23.328;2022-09-30T04:43:17;-14565.91;;;-142.93;34.56
10840;BME280;5473;42.706;23.328;2022-09-30T04:45:46;-14565.91;;;-142.93;34.54
10840;BME280;5473;42.706;23.328;2022-09-30T04:48:14;-14565.91;;;-142.93;34.57
10840;BME280;5473;42.706;23.328;2022-09-30T04:50:42;-14565.91;;;-142.93;34.54
10840;BME280;5473;42.706;23.328;2022-09-30T04:53:11;-14565.91;;;-142.93;34.56
10840;BME280;5473;42.706;23.328;2022-09-30T04:55:38;-14565.91;;;-142.93;34.62
10840;BME280;5473;42.706;23.328;2022-09-30T04:58:05;-14565.91;;;-142.93;34.65
10840;BME280;5473;42.706;23.328;2022-09-30T05:00:33;-14565.91;;;-142.93;34.64
10840;BME280;5473;42.706;23.328;2022-09-30T05:03:00;-14565.91;;;-142.93;34.68
10840;BME280;5473;42.706;23.328;2022-09-30T05:05:27;-14565.91;;;-142.93;34.79
10840;BME280;5473;42.706;23.328;2022-09-30T05:07:59;-14565.91;;;-142.93;34.84
10840;BME280;5473;42.706;23.328;2022-09-30T05:10:26;-14565.91;;;-142.93;34.93
10840;BME280;5473;42.706;23.328;2022-09-30T05:12:54;-14565.91;;;-142.93;34.90
10840;BME280;5473;42.706;23.328;2022-09-30T05:15:22;-14565.91;;;-142.93;34.99
10840;BME280;5473;42.706;23.328;2022-09-30T05:17:50;-14565.91;;;-142.93;35.09
10840;BME280;5473;42.706;23.328;2022-09-30T05:20:17;-14565.91;;;-142.93;35.10
10840;BME280;5473;42.706;23.328;2022-09-30T05:22:44;-14565.91;;;-142.93;35.09
10840;BME280;5473;42.706;23.328;2022-09-30T05:25:11;-14565.91;;;-142.93;35.14
10840;BME280;5473;42.706;23.328;2022-09-30T05:27:38;-14565.91;;;-142.93;35.17
10840;BME280;5473;42.706;23.328;2022-09-30T05:30:06;-14565.91;;;-142.93;35.15
10840;BME280;5473;42.706;23.328;2022-09-30T05:32:33;-14565.91;;;-142.93;35.19
10840;BME280;5473;42.706;23.328;2022-09-30T05:35:02;-14565.91;;;-142.93;35.11
10840;BME280;5473;42.706;23.328;2022-09-30T05:37:29;-14565.91;;;-142.93;35.08
10840;BME280;5473;42.706;23.328;2022-09-30T05:39:55;-14565.91;;;-142.93;35.06
10840;BME280;5473;42.706;23.328;2022-09-30T05:42:23;-14565.91;;;-142.93;35.05
10840;BME280;5473;42.706;23.328;2022-09-30T05:44:49;-14565.91;;;-142.93;34.93
10840;BME280;5473;42.706;23.328;2022-09-30T05:47:16;-14565.91;;;-142.93;34.90
10840;BME280;5473;42.706;23.328;2022-09-30T05:49:43;-14565.91;;;-142.93;34.96
10840;BME280;5473;42.706;23.328;2022-09-30T05:52:12;-14565.91;;;-142.93;34.96
10840;BME280;5473;42.706;23.328;2022-09-30T05:54:39;-14565.91;;;-142.93;34.99
10840;BME280;5473;42.706;23.328;2022-09-30T05:57:07;-14565.91;;;-142.93;35.10
10840;BME280;5473;42.706;23.328;2022-09-30T05:59:33;-14565.91;;;-142.93;35.27
10840;BME280;5473;42.706;23.328;2022-09-30T06:02:02;-14565.91;;;-142.93;35.39
10840;BME280;5473;42.706;23.328;2022-09-30T06:04:29;-14565.91;;;-142.93;35.47
10840;BME280;5473;42.706;23.328;2022-09-30T06:06:56;-14565.91;;;-142.93;35.51
10840;BME280;5473;42.706;23.328;2022-09-30T06:09:24;-14565.91;;;-142.93;35.71
10840;BME280;5473;42.706;23.328;2022-09-30T06:11:53;-14565.91;;;-142.93;35.74
10840;BME280;5473;42.706;23.328;2022-09-30T06:14:22;-14565.91;;;-142.93;36.21
10840;BME280;5473;42.706;23.328;2022-09-30T06:16:49;-14565.91;;;-142.93;36.58
10840;BME280;5473;42.706;23.328;2022-09-30T06:19:16;-14565.91;;;-142.93;36.60
10840;BME280;5473;42.706;23.328;2022-09-30T06:21:42;-14565.91;;;-142.93;36.65
10840;BME280;5473;42.706;23.328;2022-09-30T06:24:09;-14565.91;;;-142.93;36.82
10840;BME280;5473;42.706;23.328;2022-09-30T06:26:40;-14565.91;;;-142.93;37.24
10840;BME280;5473;42.706;23.328;2022-09-30T06:29:07;-14565.91;;;-142.93;38.04
10840;BME280;5473;42.706;23.328;2022-09-30T06:31:34;-14565.91;;;-142.93;39.07
10840;BME280;5473;42.706;23.328;2022-09-30T06:34:01;-14565.91;;;-142.93;40.24
10840;BME280;5473;42.706;23.328;2022-09-30T06:36:28;-14565.91;;;-142.93;41.52
10840;BME280;5473;42.706;23.328;2022-09-30T06:38:56;-14565.91;;;-142.93;43.43
10840;BME280;5473;42.706;23.328;2022-09-30T06:41:23;-14565.91;;;-142.93;46.25
10840;BME280;5473;42.706;23.328;2022-09-30T06:43:53;-14565.91;;;-142.93;49.98
10840;BME280;5473;42.706;23.328;2022-09-30T06:46:20;-14565.91;;;-142.93;52.49
10840;BME280;5473;42.706;23.328;2022-09-30T06:48:48;-14565.91;;;-142.93;55.56
10840;BME280;5473;42.706;23.328;2022-09-30T06:51:17;-14565.91;;;-142.93;61.72
10840;BME280;5473;42.706;23.328;2022-09-30T06:53:44;-14565.91;;;-142.93;66.32
10840;BME280;5473;42.706;23.328;2022-09-30T06:56:11;-14565.91;;;-142.93;70.52
10840;BME280;5473;42.706;23.328;2022-09-30T06:58:39;-14565.91;;;-142.93;77.55
10840;BME280;5473;42.706;23.328;2022-09-30T07:01:09;-14565.91;;;-142.93;82.68
10840;BME280;5473;42.706;23.328;2022-09-30T07:03:37;-14565.91;;;-142.93;88.15
10840;BME280;5473;42.706;23.328;2022-09-30T07:06:05;-14565.91;;;-142.93;94.73
10840;BME280;5473;42.706;23.328;2022-09-30T07:08:34;-14565.91;;;-142.93;97.04
10840;BME280;5473;42.706;23.328;2022-09-30T07:11:06;-14565.91;;;-142.93;99.26
10840;BME280;5473;42.706;23.328;2022-09-30T07:13:38;-14565.91;;;-142.93;99.97
10840;BME280;5473;42.706;23.328;2022-09-30T07:16:06;-14565.91;;;-142.93;100.00
10840;BME280;5473;42.706;23.328;2022-09-30T07:18:34;-14565.91;;;-142.93;100.00
10840;BME280;5473;42.706;23.328;2022-09-30T07:21:01;-14565.91;;;-142.93;100.00
10840;BME280;5473;42.706;23.328;2022-09-30T07:23:28;-14565.91;;;-142.93;100.00
10840;BME280;5473;42.706;23.328;2022-09-30T07:25:57;-14565.91;;;-142.93;100.00
10840;BME280;5473;42.706;23.328;2022-09-30T07:28:26;-14565.91;;;-142.93;100.00
10840;BME280;5473;42.706;23.328;2022-09-30T07:30:56;-14565.91;;;-142.93;100.00
10840;BME280;5473;42.706;23.328;2022-09-30T07:33:24;-14565.91;;;-142.93;100.00
10840;BME280;5473;42.706;23.328;2022-09-30T07:35:56;-14565.91;;;-142.93;100.00
10840;BME280;5473;42.706;23.328;2022-09-30T07:38:27;-14564.44;;;-142.93;100.00
10840;BME280;5473;42.706;23.328;2022-09-30T07:40:56;-13059.81;;;-142.93;100.00
10840;BME280;5473;42.706;23.328;2022-09-30T07:43:24;-4520.41;;;-142.93;85.04
10840;BME280;5473;42.706;23.328;2022-09-30T07:46:02;61716.41;;;-142.93;77.06
10840;BME280;5473;42.706;23.328;2022-09-30T07:48:29;59977.25;;;-142.93;73.20
10840;BME280;5473;42.706;23.328;2022-09-30T07:51:11;30456.38;;;-142.93;71.51
10840;BME280;5473;42.706;23.328;2022-09-30T07:53:40;19200.88;;;-142.93;69.06
10840;BME280;5473;42.706;23.328;2022-09-30T07:56:09;26011.47;;;-142.93;64.95
10840;BME280;5473;42.706;23.328;2022-09-30T07:58:37;29709.84;;;-142.93;62.74
10840;BME280;5473;42.706;23.328;2022-09-30T08:01:05;32460.47;;;-142.93;59.86
10840;BME280;5473;42.706;23.328;2022-09-30T08:03:32;32275.72;;;-142.93;60.21
10840;BME280;5473;42.706;23.328;2022-09-30T08:06:03;33652.81;;;-142.93;57.53
10840;BME280;5473;42.706;23.328;2022-09-30T08:08:32;33362.63;;;-142.93;58.33
10840;BME280;5473;42.706;23.328;2022-09-30T08:10:59;33559.38;;;-142.93;58.28
10840;BME280;5473;42.706;23.328;2022-09-30T08:13:26;33823.72;;;-142.93;56.88
10840;BME280;5473;42.706;23.328;2022-09-30T08:15:52;34469.78;;;-142.93;54.78
10840;BME280;5473;42.706;23.328;2022-09-30T08:18:19;34269.00;;;-142.93;56.51
10840;BME280;5473;42.706;23.328;2022-09-30T08:20:46;33348.72;;;-142.93;59.31
10840;BME280;5473;42.706;23.328;2022-09-30T08:23:13;33925.09;;;-142.93;58.08
10840;BME280;5473;42.706;23.328;2022-09-30T08:25:41;34298.81;;;-142.93;57.06
10840;BME280;5473;42.706;23.328;2022-09-30T08:28:08;33921.13;;;-142.93;57.71
10840;BME280;5473;42.706;23.328;2022-09-30T08:30:35;34410.16;;;-142.93;56.13
10840;BME280;5473;42.706;23.328;2022-09-30T08:33:03;34378.34;;;-142.93;56.39
10840;BME280;5473;42.706;23.328;2022-09-30T08:35:30;34203.41;;;-142.93;57.13
10840;BME280;5473;42.706;23.328;2022-09-30T08:37:56;34535.38;;;-142.93;55.00
10840;BME280;5473;42.706;23.328;2022-09-30T08:40:25;34807.75;;;-142.93;53.81
10840;BME280;5473;42.706;23.328;2022-09-30T08:43:16;34648.72;;;-142.93;54.75
10840;BME280;5473;42.706;23.328;2022-09-30T08:45:54;34545.34;;;-142.93;55.20
10840;BME280;5473;42.706;23.328;2022-09-30T08:48:40;34656.66;;;-142.93;54.00
10840;BME280;5473;42.706;23.328;2022-09-30T08:51:30;34738.19;;;-142.93;52.09
10840;BME280;5473;42.706;23.328;2022-09-30T08:54:02;35000.63;;;-142.93;50.66
10840;BME280;5473;42.706;23.328;2022-09-30T08:56:31;34893.25;;;-142.93;51.81
10840;BME280;5473;42.706;23.328;2022-09-30T08:59:04;34940.97;;;-142.93;50.85
10840;BME280;5473;42.706;23.328;2022-09-30T09:01:34;35008.59;;;-142.93;51.59
10840;BME280;5473;42.706;23.328;2022-09-30T09:04:03;34915.13;;;-142.93;51.70
10840;BME280;5473;42.706;23.328;2022-09-30T09:06:37;34933.03;;;-142.93;49.73
10840;BME280;5473;42.706;23.328;2022-09-30T09:09:37;34980.75;;;-142.93;50.73
10840;BME280;5473;42.706;23.328;2022-09-30T09:12:15;34821.69;;;-142.93;49.73
10840;BME280;5473;42.706;23.328;2022-09-30T09:15:00;35078.19;;;-142.93;47.39
10840;BME280;5473;42.706;23.328;2022-09-30T09:17:43;35072.22;;;-142.93;47.46
10840;BME280;5473;42.706;23.328;2022-09-30T09:20:14;35141.81;;;-142.93;46.98
10840;BME280;5473;42.706;23.328;2022-09-30T09:22:41;35102.03;;;-142.93;48.18
10840;BME280;5473;42.706;23.328;2022-09-30T09:25:12;35096.06;;;-142.93;46.23
10840;BME280;5473;42.706;23.328;2022-09-30T09:27:45;35426.16;;;-142.93;45.91
10840;BME280;5473;42.706;23.328;2022-09-30T09:30:19;35364.53;;;-142.93;45.85
10840;BME280;5473;42.706;23.328;2022-09-30T09:32:51;35398.31;;;-142.93;45.08
10840;BME280;5473;42.706;23.328;2022-09-30T09:35:30;35380.44;;;-142.93;44.59
10840;BME280;5473;42.706;23.328;2022-09-30T09:38:04;35424.19;;;-142.93;44.97
10840;BME280;5473;42.706;23.328;2022-09-30T09:41:11;35467.94;;;-142.93;43.07
10840;BME280;5473;42.706;23.328;2022-09-30T09:43:49;35380.44;;;-142.93;42.54
10840;BME280;5473;42.706;23.328;2022-09-30T09:46:23;35547.47;;;-142.93;41.63
10840;BME280;5473;42.706;23.328;2022-09-30T09:49:20;35388.38;;;-142.93;42.95
10840;BME280;5473;42.706;23.328;2022-09-30T09:52:00;35336.69;;;-142.93;44.18
10840;BME280;5473;42.706;23.328;2022-09-30T09:54:31;34982.72;;;-142.93;41.51
10840;BME280;5473;42.706;23.328;2022-09-30T09:57:04;35026.47;;;-142.93;40.44
10840;BME280;5473;42.706;23.328;2022-09-30T09:59:33;35239.25;;;-142.93;41.79
10840;BME280;5473;42.706;23.328;2022-09-30T10:02:02;35275.03;;;-142.93;41.96
10840;BME280;5473;42.706;23.328;2022-09-30T10:04:29;34942.97;;;-142.93;40.49
10840;BME280;5473;42.706;23.328;2022-09-30T10:06:58;34913.16;;;-142.93;39.13
10840;BME280;5473;42.706;23.328;2022-09-30T10:09:28;34990.69;;;-142.93;38.70
10840;BME280;5473;42.706;23.328;2022-09-30T10:12:26;34839.56;;;-142.93;38.45
10840;BME280;5473;42.706;23.328;2022-09-30T10:15:17;35022.50;;;-142.93;38.73
10840;BME280;5473;42.706;23.328;2022-09-30T10:17:52;35034.44;;;-142.93;37.64
10840;BME280;5473;42.706;23.328;2022-09-30T10:20:27;35195.50;;;-142.93;36.36
10840;BME280;5473;42.706;23.328;2022-09-30T10:23:08;35233.28;;;-142.93;36.59
10840;BME280;5473;42.706;23.328;2022-09-30T10:25:35;35461.97;;;-142.93;36.89
10840;BME280;5473;42.706;23.328;2022-09-30T10:28:21;35318.78;;;-142.93;36.03
10840;BME280;5473;42.706;23.328;2022-09-30T10:30:52;35366.50;;;-142.93;35.90
10840;BME280;5473;42.706;23.328;2022-09-30T10:33:25;35271.06;;;-142.93;35.52
10840;BME280;5473;42.706;23.328;2022-09-30T10:35:59;34978.75;;;-142.93;34.55
10840;BME280;5473;42.706;23.328;2022-09-30T10:38:27;34805.78;;;-142.93;34.01
10840;BME280;5473;42.706;23.328;2022-09-30T10:40:57;34939.00;;;-142.93;33.53
10840;BME280;5473;42.706;23.328;2022-09-30T10:43:27;34708.34;;;-142.93;33.11
10840;BME280;5473;42.706;23.328;2022-09-30T10:45:56;34853.50;;;-142.93;32.97
10840;BME280;5473;42.706;23.328;2022-09-30T10:48:32;34614.91;;;-142.93;32.87
10840;BME280;5473;42.706;23.328;2022-09-30T10:51:00;34453.88;;;-142.93;32.12
10840;BME280;5473;42.706;23.328;2022-09-30T10:53:30;34352.50;;;-142.93;31.73
10840;BME280;5473;42.706;23.328;2022-09-30T10:55:58;34589.06;;;-142.93;31.61
10840;BME280;5473;42.706;23.328;2022-09-30T10:58:41;34434.00;;;-142.93;31.21
10840;BME280;5473;42.706;23.328;2022-09-30T11:01:16;35215.38;;;-142.93;32.19
10840;BME280;5473;42.706;23.328;2022-09-30T11:03:55;35517.63;;;-142.93;32.75
10840;BME280;5473;42.706;23.328;2022-09-30T11:06:27;35804.03;;;-142.93;34.75
10840;BME280;5473;42.706;23.328;2022-09-30T11:09:01;35784.13;;;-142.93;34.00
10840;BME280;5473;42.706;23.328;2022-09-30T11:11:35;35163.69;;;-142.93;32.73
10840;BME280;5473;42.706;23.328;2022-09-30T11:14:18;35042.38;;;-142.93;31.46
10840;BME280;5473;42.706;23.328;2022-09-30T11:16:53;34923.09;;;-142.93;30.07
10840;BME280;5473;42.706;23.328;2022-09-30T11:19:27;35517.63;;;-142.93;31.37
10840;BME280;5473;42.706;23.328;2022-09-30T11:21:59;35559.41;;;-142.93;31.82
10840;BME280;5473;42.706;23.328;2022-09-30T11:24:34;35726.47;;;-142.93;32.20
10840;BME280;5473;42.706;23.328;2022-09-30T11:27:10;35716.50;;;-142.93;32.62
10840;BME280;5473;42.706;23.328;2022-09-30T11:29:53;35642.94;;;-142.93;32.31
10840;BME280;5473;42.706;23.328;2022-09-30T11:32:35;35121.91;;;-142.93;31.33
10840;BME280;5473;42.706;23.328;2022-09-30T11:35:22;34762.03;;;-142.93;30.63
10840;BME280;5473;42.706;23.328;2022-09-30T11:38:03;34394.25;;;-142.93;29.77
10840;BME280;5473;42.706;23.328;2022-09-30T11:40:37;34885.31;;;-142.93;29.42
10840;BME280;5473;42.706;23.328;2022-09-30T11:43:14;35316.78;;;-142.93;29.55
10840;BME280;5473;42.706;23.328;2022-09-30T11:46:00;35006.59;;;-142.93;29.49
10840;BME280;5473;42.706;23.328;2022-09-30T11:48:39;35048.34;;;-142.93;29.77
10840;BME280;5473;42.706;23.328;2022-09-30T11:51:18;34954.91;;;-142.93;29.21
10840;BME280;5473;42.706;23.328;2022-09-30T11:53:58;34933.03;;;-142.93;29.70
10840;BME280;5473;42.706;23.328;2022-09-30T11:56:42;35117.94;;;-142.93;29.55
10840;BME280;5473;42.706;23.328;2022-09-30T11:59:17;35253.16;;;-142.93;29.95
10840;BME280;5473;42.706;23.328;2022-09-30T12:01:48;35452.00;;;-142.93;30.40
10840;BME280;5473;42.706;23.328;2022-09-30T12:04:19;35674.75;;;-142.93;30.60
10840;BME280;5473;42.706;23.328;2022-09-30T12:06:55;35678.72;;;-142.93;31.28
10840;BME280;5473;42.706;23.328;2022-09-30T12:09:27;35497.75;;;-142.93;31.19
10840;BME280;5473;42.706;23.328;2022-09-30T12:11:59;35712.53;;;-142.93;31.51
10840;BME280;5473;42.706;23.328;2022-09-30T12:14:35;35784.13;;;-142.93;31.94
10840;BME280;5473;42.706;23.328;2022-09-30T12:17:10;35867.66;;;-142.93;32.32
10840;BME280;5473;42.706;23.328;2022-09-30T12:19:44;35957.16;;;-142.93;32.65
10840;BME280;5473;42.706;23.328;2022-09-30T12:22:17;35971.09;;;-142.93;33.13
10840;BME280;5473;42.706;23.328;2022-09-30T12:24:46;35915.41;;;-142.93;32.69
10840;BME280;5473;42.706;23.328;2022-09-30T12:27:17;35774.19;;;-142.93;32.58
10840;BME280;5473;42.706;23.328;2022-09-30T12:29:51;35784.13;;;-142.93;32.31
10840;BME280;5473;42.706;23.328;2022-09-30T12:33:21;35694.63;;;-142.93;32.28
10840;BME280;5473;42.706;23.328;2022-09-30T12:36:15;35790.09;;;-142.93;32.67
10840;BME280;5473;42.706;23.328;2022-09-30T12:39:33;36040.69;;;-142.93;32.91
10840;BME280;5473;42.706;23.328;2022-09-30T12:42:28;35949.22;;;-142.93;32.79
10840;BME280;5473;42.706;23.328;2022-09-30T12:47:49;35903.47;;;-142.93;32.40
10840;BME280;5473;42.706;23.328;2022-09-30T12:50:21;35790.09;;;-142.93;32.20
10840;BME280;5473;42.706;23.328;2022-09-30T12:52:49;35738.38;;;-142.93;31.75
10840;BME280;5473;42.706;23.328;2022-09-30T12:55:23;35800.03;;;-142.93;31.69
10840;BME280;5473;42.706;23.328;2022-09-30T12:57:56;35879.59;;;-142.93;32.32
10840;BME280;5473;42.706;23.328;2022-09-30T13:00:26;35901.47;;;-142.93;31.75
10840;BME280;5473;42.706;23.328;2022-09-30T13:02:57;35859.72;;;-142.93;31.55
10840;BME280;5473;42.706;23.328;2022-09-30T13:05:55;35971.09;;;-142.93;31.77
10840;BME280;5473;42.706;23.328;2022-09-30T13:08:45;36211.75;;;-142.93;32.40
10840;BME280;5473;42.706;23.328;2022-09-30T13:11:37;36402.72;;;-142.93;33.39
10840;BME280;5473;42.706;23.328;2022-09-30T13:14:30;36549.91;;;-142.93;33.77
10840;BME280;5473;42.706;23.328;2022-09-30T13:17:26;36661.31;;;-142.93;34.21